Sign in

Goboko App

Advertising

Info

Aviation weather - KDAB

METAR KDAB 242053Z 05009KT 10SM FEW023 26/19 A2980 RMK AO2 SLP092 60000 T02560189 56006

TAF KDAB 241741Z 2418/2518 03011KT P6SM SCT030 FM250000 01004KT P6SM FEW030 FM250800 00000KT 3SM BR SCT004 BKN010 TEMPO 2509/2513 1SM BR BKN004 FM251500 25006KT P6SM SCT015 SCT035

Aviation weather from ADDS. Re-check weather before flight.

-